sensor_id;sensor_type;location;lat;lon;timestamp;temperature;humidity
45108;DHT22;30869;51.188;6.556;2022-09-20T04:13:53;12.00;99.90
45108;DHT22;30869;51.188;6.556;2022-09-20T04:22:14;12.00;99.90
45108;DHT22;30869;51.188;6.556;2022-09-20T04:25:11;12.00;99.90
45108;DHT22;30869;51.188;6.556;2022-09-20T04:30:46;11.90;99.90
45108;DHT22;30869;51.188;6.556;2022-09-20T04:33:39;11.90;99.90
45108;DHT22;30869;51.188;6.556;2022-09-20T04:36:49;11.80;99.90
45108;DHT22;30869;51.188;6.556;2022-09-20T04:39:45;11.80;99.90
45108;DHT22;30869;51.188;6.556;2022-09-20T04:48:14;11.90;99.90
45108;DHT22;30869;51.188;6.556;2022-09-20T04:51:23;11.90;99.90
45108;DHT22;30869;51.188;6.556;2022-09-20T05:02:51;12.00;99.90
45108;DHT22;30869;51.188;6.556;2022-09-20T05:05:38;12.00;99.90
45108;DHT22;30869;51.188;6.556;2022-09-20T05:19:27;11.80;99.90
45108;DHT22;30869;51.188;6.556;2022-09-20T05:27:34;11.90;99.90
45108;DHT22;30869;51.188;6.556;2022-09-20T05:30:35;11.90;99.90
45108;DHT22;30869;51.188;6.556;2022-09-20T05:33:29;12.00;99.90
45108;DHT22;30869;51.188;6.556;2022-09-20T05:38:46;12.00;99.90
45108;DHT22;30869;51.188;6.556;2022-09-20T05:49:58;12.10;99.90
45108;DHT22;30869;51.188;6.556;2022-09-20T05:52:54;12.10;99.90
45108;DHT22;30869;51.188;6.556;2022-09-20T05:58:34;12.20;99.90
45108;DHT22;30869;51.188;6.556;2022-09-20T06:01:10;12.30;99.90
45108;DHT22;30869;51.188;6.556;2022-09-20T06:06:46;12.10;99.90
45108;DHT22;30869;51.188;6.556;2022-09-20T06:09:21;12.10;99.90
45108;DHT22;30869;51.188;6.556;2022-09-20T06:23:11;12.00;99.90
45108;DHT22;30869;51.188;6.556;2022-09-20T06:25:42;12.10;99.90
45108;DHT22;30869;51.188;6.556;2022-09-20T06:28:16;12.10;99.90
45108;DHT22;30869;51.188;6.556;2022-09-20T06:30:49;12.00;99.90
45108;DHT22;30869;51.188;6.556;2022-09-20T06:33:18;12.00;99.90
45108;DHT22;30869;51.188;6.556;2022-09-20T06:36:07;12.00;99.90
45108;DHT22;30869;51.188;6.556;2022-09-20T06:39:15;12.00;99.90
45108;DHT22;30869;51.188;6.556;2022-09-20T06:42:05;12.10;99.90
45108;DHT22;30869;51.188;6.556;2022-09-20T06:44:31;12.20;99.90
45108;DHT22;30869;51.188;6.556;2022-09-20T06:46:57;12.20;99.90
45108;DHT22;30869;51.188;6.556;2022-09-20T06:49:24;12.20;99.90
45108;DHT22;30869;51.188;6.556;2022-09-20T06:51:52;12.30;99.90
45108;DHT22;30869;51.188;6.556;2022-09-20T06:54:19;12.20;99.90
45108;DHT22;30869;51.188;6.556;2022-09-20T06:56:46;12.30;99.90
45108;DHT22;30869;51.188;6.556;2022-09-20T06:59:12;12.20;99.90
45108;DHT22;30869;51.188;6.556;2022-09-20T07:01:40;12.70;99.90
45108;DHT22;30869;51.188;6.556;2022-09-20T07:04:06;12.90;99.90
45108;DHT22;30869;51.188;6.556;2022-09-20T07:06:36;13.20;99.90
45108;DHT22;30869;51.188;6.556;2022-09-20T07:09:03;13.20;99.90
45108;DHT22;30869;51.188;6.556;2022-09-20T07:11:33;13.20;99.90
45108;DHT22;30869;51.188;6.556;2022-09-20T07:14:00;13.00;99.90
45108;DHT22;30869;51.188;6.556;2022-09-20T07:16:26;12.80;99.90
45108;DHT22;30869;51.188;6.556;2022-09-20T07:18:52;12.70;99.90
45108;DHT22;30869;51.188;6.556;2022-09-20T07:21:19;12.60;99.90
45108;DHT22;30869;51.188;6.556;2022-09-20T07:23:45;12.60;99.90
45108;DHT22;30869;51.188;6.556;2022-09-20T07:26:27;12.50;99.90
45108;DHT22;30869;51.188;6.556;2022-09-20T07:28:54;12.60;99.90
45108;DHT22;30869;51.188;6.556;2022-09-20T07:31:21;12.60;99.90
45108;DHT22;30869;51.188;6.556;2022-09-20T07:33:47;12.60;99.90
45108;DHT22;30869;51.188;6.556;2022-09-20T07:36:14;13.00;99.90
45108;DHT22;30869;51.188;6.556;2022-09-20T07:38:41;13.30;99.90
45108;DHT22;30869;51.188;6.556;2022-09-20T07:41:08;13.80;99.90
45108;DHT22;30869;51.188;6.556;2022-09-20T07:43:35;13.90;99.90
45108;DHT22;30869;51.188;6.556;2022-09-20T07:46:04;13.90;99.90
45108;DHT22;30869;51.188;6.556;2022-09-20T07:48:32;13.60;99.90
45108;DHT22;30869;51.188;6.556;2022-09-20T07:51:11;13.50;99.90
45108;DHT22;30869;51.188;6.556;2022-09-20T07:53:38;13.30;99.90
45108;DHT22;30869;51.188;6.556;2022-09-20T07:56:11;13.40;99.90
45108;DHT22;30869;51.188;6.556;2022-09-20T07:58:37;13.20;99.90
45108;DHT22;30869;51.188;6.556;2022-09-20T08:01:08;13.30;99.90
45108;DHT22;30869;51.188;6.556;2022-09-20T08:03:35;13.20;99.90
45108;DHT22;30869;51.188;6.556;2022-09-20T08:06:03;13.30;99.90
45108;DHT22;30869;51.188;6.556;2022-09-20T08:08:33;13.30;99.90
45108;DHT22;30869;51.188;6.556;2022-09-20T08:11:06;13.30;99.90
45108;DHT22;30869;51.188;6.556;2022-09-20T08:13:40;13.40;99.90
45108;DHT22;30869;51.188;6.556;2022-09-20T08:16:07;13.50;99.90
45108;DHT22;30869;51.188;6.556;2022-09-20T08:18:35;13.60;99.90
45108;DHT22;30869;51.188;6.556;2022-09-20T08:21:04;13.90;99.90
45108;DHT22;30869;51.188;6.556;2022-09-20T08:23:40;14.10;99.90
45108;DHT22;30869;51.188;6.556;2022-09-20T08:26:09;14.30;99.90
45108;DHT22;30869;51.188;6.556;2022-09-20T08:28:39;14.30;99.90
45108;DHT22;30869;51.188;6.556;2022-09-20T08:31:10;14.30;99.90
45108;DHT22;30869;51.188;6.556;2022-09-20T08:33:39;14.40;99.90
45108;DHT22;30869;51.188;6.556;2022-09-20T08:36:07;14.20;99.90
45108;DHT22;30869;51.188;6.556;2022-09-20T08:38:34;14.30;99.90
45108;DHT22;30869;51.188;6.556;2022-09-20T08:41:09;14.50;99.90
45108;DHT22;30869;51.188;6.556;2022-09-20T08:43:47;14.30;99.90
45108;DHT22;30869;51.188;6.556;2022-09-20T08:46:22;14.20;99.90
45108;DHT22;30869;51.188;6.556;2022-09-20T08:48:50;14.10;99.90
45108;DHT22;30869;51.188;6.556;2022-09-20T08:51:16;14.10;99.90
45108;DHT22;30869;51.188;6.556;2022-09-20T08:53:52;14.00;99.90
45108;DHT22;30869;51.188;6.556;2022-09-20T08:56:21;14.10;99.90
45108;DHT22;30869;51.188;6.556;2022-09-20T08:58:47;14.30;99.90
45108;DHT22;30869;51.188;6.556;2022-09-20T09:01:21;14.30;99.90
45108;DHT22;30869;51.188;6.556;2022-09-20T09:04:20;14.20;99.90
45108;DHT22;30869;51.188;6.556;2022-09-20T09:06:51;14.60;99.90
45108;DHT22;30869;51.188;6.556;2022-09-20T09:11:46;14.70;99.90
45108;DHT22;30869;51.188;6.556;2022-09-20T09:14:25;14.60;99.90
45108;DHT22;30869;51.188;6.556;2022-09-20T09:17:11;14.70;99.90
45108;DHT22;30869;51.188;6.556;2022-09-20T09:19:49;14.40;99.90
45108;DHT22;30869;51.188;6.556;2022-09-20T09:22:31;14.20;99.90
45108;DHT22;30869;51.188;6.556;2022-09-20T09:25:36;14.00;99.90
45108;DHT22;30869;51.188;6.556;2022-09-20T09:30:51;14.10;99.90
45108;DHT22;30869;51.188;6.556;2022-09-20T09:33:29;14.10;99.90
45108;DHT22;30869;51.188;6.556;2022-09-20T09:36:01;14.00;99.90
45108;DHT22;30869;51.188;6.556;2022-09-20T09:38:38;13.70;99.90
45108;DHT22;30869;51.188;6.556;2022-09-20T09:41:09;13.80;99.90
45108;DHT22;30869;51.188;6.556;2022-09-20T09:44:00;13.70;99.90
45108;DHT22;30869;51.188;6.556;2022-09-20T09:46:30;13.70;99.90
45108;DHT22;30869;51.188;6.556;2022-09-20T09:49:08;13.70;99.90
45108;DHT22;30869;51.188;6.556;2022-09-20T09:51:37;13.60;99.90
45108;DHT22;30869;51.188;6.556;2022-09-20T09:54:04;13.50;99.90
45108;DHT22;30869;51.188;6.556;2022-09-20T09:59:32;13.50;99.90
45108;DHT22;30869;51.188;6.556;2022-09-20T10:07:52;13.40;99.90
45108;DHT22;30869;51.188;6.556;2022-09-20T10:10:34;13.40;99.90
45108;DHT22;30869;51.188;6.556;2022-09-20T10:13:23;13.40;99.90
45108;DHT22;30869;51.188;6.556;2022-09-20T10:16:11;13.30;99.90
45108;DHT22;30869;51.188;6.556;2022-09-20T10:47:05;13.10;99.90
45108;DHT22;30869;51.188;6.556;2022-09-20T10:57:27;13.10;99.90
45108;DHT22;30869;51.188;6.556;2022-09-20T11:03:14;13.10;99.90
45108;DHT22;30869;51.188;6.556;2022-09-20T11:08:35;13.10;99.90
45108;DHT22;30869;51.188;6.556;2022-09-20T11:22:07;13.30;99.90
45108;DHT22;30869;51.188;6.556;2022-09-20T11:24:54;13.30;99.90
45108;DHT22;30869;51.188;6.556;2022-09-20T11:27:43;13.30;99.90
45108;DHT22;30869;51.188;6.556;2022-09-20T11:32:52;13.50;99.90
45108;DHT22;30869;51.188;6.556;2022-09-20T11:35:36;13.60;99.90
45108;DHT22;30869;51.188;6.556;2022-09-20T11:38:15;13.50;99.90
45108;DHT22;30869;51.188;6.556;2022-09-20T11:40:46;13.50;99.90
45108;DHT22;30869;51.188;6.556;2022-09-20T11:43:15;13.50;99.90
45108;DHT22;30869;51.188;6.556;2022-09-20T11:45:42;13.50;99.90
45108;DHT22;30869;51.188;6.556;2022-09-20T11:53:52;13.60;99.90
45108;DHT22;30869;51.188;6.556;2022-09-20T11:56:26;13.60;99.90
45108;DHT22;30869;51.188;6.556;2022-09-20T11:58:54;13.60;99.90
45108;DHT22;30869;51.188;6.556;2022-09-20T12:01:25;13.70;99.90
45108;DHT22;30869;51.188;6.556;2022-09-20T12:04:10;13.50;99.90
45108;DHT22;30869;51.188;6.556;2022-09-20T12:06:39;13.50;99.90
45108;DHT22;30869;51.188;6.556;2022-09-20T12:09:24;13.50;99.90
45108;DHT22;30869;51.188;6.556;2022-09-20T12:11:52;13.40;99.90
45108;DHT22;30869;51.188;6.556;2022-09-20T12:14:25;13.40;99.90
45108;DHT22;30869;51.188;6.556;2022-09-20T12:16:53;13.40;99.90
45108;DHT22;30869;51.188;6.556;2022-09-20T12:24:30;13.40;99.90
45108;DHT22;30869;51.188;6.556;2022-09-20T12:26:58;13.40;99.90
45108;DHT22;30869;51.188;6.556;2022-09-20T12:31:56;13.50;99.90
45108;DHT22;30869;51.188;6.556;2022-09-20T12:39:28;13.40;99.90
45108;DHT22;30869;51.188;6.556;2022-09-20T12:42:03;13.40;99.90
45108;DHT22;30869;51.188;6.556;2022-09-20T12:47:26;13.40;99.90
45108;DHT22;30869;51.188;6.556;2022-09-20T12:49:55;13.40;99.90
45108;DHT22;30869;51.188;6.556;2022-09-20T12:53:11;13.40;99.90
45108;DHT22;30869;51.188;6.556;2022-09-20T12:55:39;13.50;99.90
45108;DHT22;30869;51.188;6.556;2022-09-20T13:03:42;13.60;99.90
45108;DHT22;30869;51.188;6.556;2022-09-20T13:14:22;13.80;99.90
45108;DHT22;30869;51.188;6.556;2022-09-20T13:19:46;13.80;99.90
45108;DHT22;30869;51.188;6.556;2022-09-20T13:24:51;13.70;99.90
45108;DHT22;30869;51.188;6.556;2022-09-20T13:27:32;13.70;99.90
45108;DHT22;30869;51.188;6.556;2022-09-20T13:30:29;13.80;99.90
45108;DHT22;30869;51.188;6.556;2022-09-20T13:33:15;13.90;99.90
45108;DHT22;30869;51.188;6.556;2022-09-20T13:35:44;13.90;99.90
45108;DHT22;30869;51.188;6.556;2022-09-20T13:38:11;14.10;99.90
45108;DHT22;30869;51.188;6.556;2022-09-20T13:40:45;14.20;99.90
45108;DHT22;30869;51.188;6.556;2022-09-20T13:43:36;14.20;99.90
45108;DHT22;30869;51.188;6.556;2022-09-20T13:46:13;14.00;99.90
45108;DHT22;30869;51.188;6.556;2022-09-20T13:48:41;14.20;99.90
45108;DHT22;30869;51.188;6.556;2022-09-20T13:51:27;14.20;99.90
45108;DHT22;30869;51.188;6.556;2022-09-20T13:53:53;14.20;99.90
45108;DHT22;30869;51.188;6.556;2022-09-20T13:56:39;14.30;99.90
45108;DHT22;30869;51.188;6.556;2022-09-20T13:59:05;14.20;99.90
45108;DHT22;30869;51.188;6.556;2022-09-20T14:01:33;14.20;99.90
45108;DHT22;30869;51.188;6.556;2022-09-20T14:04:15;14.30;99.90
45108;DHT22;30869;51.188;6.556;2022-09-20T14:06:42;14.50;99.90
45108;DHT22;30869;51.188;6.556;2022-09-20T14:09:37;14.60;99.90
45108;DHT22;30869;51.188;6.556;2022-09-20T14:12:04;14.60;99.90
45108;DHT22;30869;51.188;6.556;2022-09-20T14:14:32;14.60;99.90
45108;DHT22;30869;51.188;6.556;2022-09-20T14:17:00;14.70;99.90
45108;DHT22;30869;51.188;6.556;2022-09-20T14:19:30;14.60;99.90
45108;DHT22;30869;51.188;6.556;2022-09-20T14:22:01;14.50;99.90
45108;DHT22;30869;51.188;6.556;2022-09-20T14:24:37;14.40;99.90
45108;DHT22;30869;51.188;6.556;2022-09-20T14:27:04;14.40;99.90
45108;DHT22;30869;51.188;6.556;2022-09-20T14:29:36;14.40;99.90
45108;DHT22;30869;51.188;6.556;2022-09-20T14:34:57;14.30;99.90
45108;DHT22;30869;51.188;6.556;2022-09-20T14:37:35;14.40;99.90
45108;DHT22;30869;51.188;6.556;2022-09-20T14:40:28;14.40;99.90
45108;DHT22;30869;51.188;6.556;2022-09-20T14:42:59;14.30;99.90
45108;DHT22;30869;51.188;6.556;2022-09-20T14:45:36;14.40;99.90
45108;DHT22;30869;51.188;6.556;2022-09-20T14:48:36;14.60;99.90
45108;DHT22;30869;51.188;6.556;2022-09-20T14:53:36;14.20;99.90
45108;DHT22;30869;51.188;6.556;2022-09-20T14:56:07;14.30;99.90
45108;DHT22;30869;51.188;6.556;2022-09-20T14:59:26;14.50;99.90
45108;DHT22;30869;51.188;6.556;2022-09-20T15:02:14;14.50;99.90
45108;DHT22;30869;51.188;6.556;2022-09-20T15:04:48;14.60;99.90
45108;DHT22;30869;51.188;6.556;2022-09-20T15:07:15;14.80;99.90
45108;DHT22;30869;51.188;6.556;2022-09-20T15:09:41;14.60;99.90
45108;DHT22;30869;51.188;6.556;2022-09-20T15:12:19;14.60;99.90
45108;DHT22;30869;51.188;6.556;2022-09-20T15:14:46;14.50;99.90
45108;DHT22;30869;51.188;6.556;2022-09-20T15:17:18;14.60;99.90
45108;DHT22;30869;51.188;6.556;2022-09-20T15:19:44;14.60;99.90
45108;DHT22;30869;51.188;6.556;2022-09-20T15:22:11;14.70;99.90
45108;DHT22;30869;51.188;6.556;2022-09-20T15:24:37;14.70;99.90
45108;DHT22;30869;51.188;6.556;2022-09-20T15:27:03;14.60;99.90
45108;DHT22;30869;51.188;6.556;2022-09-20T15:29:29;14.50;99.90
45108;DHT22;30869;51.188;6.556;2022-09-20T15:31:55;14.40;99.90
45108;DHT22;30869;51.188;6.556;2022-09-20T15:34:21;14.40;99.90
45108;DHT22;30869;51.188;6.556;2022-09-20T15:36:46;14.20;99.90
45108;DHT22;30869;51.188;6.556;2022-09-20T15:39:13;14.20;99.90
45108;DHT22;30869;51.188;6.556;2022-09-20T15:41:39;14.30;99.90
45108;DHT22;30869;51.188;6.556;2022-09-20T15:44:05;14.30;99.90
45108;DHT22;30869;51.188;6.556;2022-09-20T15:46:32;14.30;99.90
45108;DHT22;30869;51.188;6.556;2022-09-20T15:49:01;14.70;99.90
45108;DHT22;30869;51.188;6.556;2022-09-20T15:51:45;14.60;99.90
45108;DHT22;30869;51.188;6.556;2022-09-20T15:54:13;14.60;99.90
45108;DHT22;30869;51.188;6.556;2022-09-20T15:56:39;14.70;99.90
45108;DHT22;30869;51.188;6.556;2022-09-20T15:59:11;14.50;99.90
45108;DHT22;30869;51.188;6.556;2022-09-20T16:01:43;14.40;99.90
45108;DHT22;30869;51.188;6.556;2022-09-20T16:04:10;14.40;99.90
45108;DHT22;30869;51.188;6.556;2022-09-20T16:06:37;14.50;99.90
45108;DHT22;30869;51.188;6.556;2022-09-20T16:09:04;14.40;99.90
45108;DHT22;30869;51.188;6.556;2022-09-20T16:11:31;14.30;99.90
45108;DHT22;30869;51.188;6.556;2022-09-20T16:13:58;14.30;99.90
45108;DHT22;30869;51.188;6.556;2022-09-20T16:16:28;14.20;99.90
45108;DHT22;30869;51.188;6.556;2022-09-20T16:18:54;14.20;99.90
45108;DHT22;30869;51.188;6.556;2022-09-20T16:21:40;14.40;99.90
45108;DHT22;30869;51.188;6.556;2022-09-20T16:24:07;14.10;99.90
45108;DHT22;30869;51.188;6.556;2022-09-20T16:26:34;14.10;99.90
45108;DHT22;30869;51.188;6.556;2022-09-20T16:29:01;14.10;99.90
45108;DHT22;30869;51.188;6.556;2022-09-20T16:33:56;14.00;99.90
45108;DHT22;30869;51.188;6.556;2022-09-20T16:36:22;14.00;99.90
45108;DHT22;30869;51.188;6.556;2022-09-20T16:38:50;14.00;99.90
45108;DHT22;30869;51.188;6.556;2022-09-20T16:41:22;14.00;99.90
45108;DHT22;30869;51.188;6.556;2022-09-20T16:43:54;13.90;99.90
45108;DHT22;30869;51.188;6.556;2022-09-20T16:46:25;13.90;99.90
45108;DHT22;30869;51.188;6.556;2022-09-20T16:52:00;13.90;99.90
45108;DHT22;30869;51.188;6.556;2022-09-20T16:54:27;13.90;99.90
45108;DHT22;30869;51.188;6.556;2022-09-20T16:56:55;13.90;99.90
45108;DHT22;30869;51.188;6.556;2022-09-20T16:59:30;13.80;99.90
45108;DHT22;30869;51.188;6.556;2022-09-20T17:02:00;13.80;99.90
45108;DHT22;30869;51.188;6.556;2022-09-20T17:04:26;13.80;99.90
45108;DHT22;30869;51.188;6.556;2022-09-20T17:48:05;13.50;99.90
45108;DHT22;30869;51.188;6.556;2022-09-20T17:56:20;13.50;99.90
45108;DHT22;30869;51.188;6.556;2022-09-20T17:58:51;13.50;99.90
45108;DHT22;30869;51.188;6.556;2022-09-20T18:01:18;13.50;99.90
45108;DHT22;30869;51.188;6.556;2022-09-20T18:03:55;13.50;99.90
45108;DHT22;30869;51.188;6.556;2022-09-20T18:06:44;13.50;99.90
45108;DHT22;30869;51.188;6.556;2022-09-20T18:09:28;13.50;99.90
45108;DHT22;30869;51.188;6.556;2022-09-20T18:12:02;13.50;99.90
45108;DHT22;30869;51.188;6.556;2022-09-20T18:14:38;13.50;99.90
45108;DHT22;30869;51.188;6.556;2022-09-20T18:17:25;13.50;99.90
45108;DHT22;30869;51.188;6.556;2022-09-20T18:26:11;13.40;99.90
